createdAt,value
2018-09-20T00:00:49.781Z,7.83
2018-09-20T00:03:18.884Z,6.70
2018-09-20T00:05:47.965Z,7.43
2018-09-20T00:08:17.171Z,8.67
2018-09-20T00:10:46.248Z,8.33
2018-09-20T00:13:15.384Z,7.57
2018-09-20T00:15:44.560Z,7.50
2018-09-20T00:18:13.660Z,8.10
2018-09-20T00:20:42.745Z,7.87
2018-09-20T00:23:11.872Z,8.07
2018-09-20T00:25:40.929Z,8.73
2018-09-20T00:28:09.943Z,7.60
2018-09-20T00:30:39.293Z,7.73
2018-09-20T00:33:08.415Z,8.30
2018-09-20T00:35:37.476Z,7.73
2018-09-20T00:38:06.630Z,8.27
2018-09-20T00:40:36.297Z,7.97
2018-09-20T00:43:05.389Z,8.20
2018-09-20T00:45:34.469Z,8.37
2018-09-20T00:48:03.717Z,8.60
2018-09-20T00:50:32.828Z,8.90
2018-09-20T00:53:01.893Z,8.57
2018-09-20T00:55:30.640Z,8.30
2018-09-20T00:57:59.601Z,9.50
2018-09-20T01:00:28.803Z,9.80
2018-09-20T01:02:58.397Z,8.50
2018-09-20T01:05:27.544Z,9.90
2018-09-20T01:07:56.675Z,9.03
2018-09-20T01:10:25.769Z,8.10
2018-09-20T01:12:55.072Z,8.47
2018-09-20T01:15:24.097Z,8.33
2018-09-20T01:17:53.130Z,7.90
2018-09-20T01:20:23.029Z,8.30
2018-09-20T01:22:52.068Z,7.90
2018-09-20T01:25:21.265Z,8.07
2018-09-20T01:27:50.331Z,8.60
2018-09-20T01:30:19.456Z,8.63
2018-09-20T01:32:49.193Z,8.73
2018-09-20T01:35:18.256Z,9.43
2018-09-20T01:37:47.388Z,8.60
2018-09-20T01:40:16.528Z,8.97
2018-09-20T01:42:45.564Z,9.23
2018-09-20T01:45:14.842Z,10.47
2018-09-20T01:47:45.528Z,11.00
2018-09-20T01:50:14.689Z,10.30
2018-09-20T01:52:43.720Z,9.30
2018-09-20T01:55:13.573Z,9.27
2018-09-20T01:57:43.788Z,9.47
2018-09-20T02:00:13.073Z,9.43
2018-09-20T02:02:42.240Z,10.90
2018-09-20T02:05:11.452Z,11.43
2018-09-20T02:07:40.488Z,10.23
2018-09-20T02:10:10.143Z,11.27
2018-09-20T02:12:39.203Z,11.10
2018-09-20T02:15:08.336Z,11.77
2018-09-20T02:17:37.875Z,9.90
2018-09-20T02:20:07.044Z,10.70
2018-09-20T02:22:36.297Z,10.03
2018-09-20T02:25:05.848Z,8.77
2018-09-20T02:27:34.915Z,9.40
2018-09-20T02:30:04.048Z,9.07
2018-09-20T02:32:33.160Z,8.80
2018-09-20T02:35:02.437Z,9.60
2018-09-20T02:37:31.529Z,8.80
2018-09-20T02:40:00.689Z,9.33
2018-09-20T02:42:29.783Z,9.53
2018-09-20T02:44:58.832Z,8.30
2018-09-20T02:47:28.523Z,9.43
2018-09-20T02:49:57.595Z,10.30
2018-09-20T02:52:27.060Z,9.57
2018-09-20T02:54:56.117Z,9.30
2018-09-20T02:57:25.372Z,8.70
2018-09-20T02:59:55.513Z,8.13
2018-09-20T03:02:25.156Z,9.10
2018-09-20T03:04:54.857Z,9.00
2018-09-20T03:07:23.899Z,9.10
2018-09-20T03:09:52.998Z,10.67
2018-09-20T03:12:22.136Z,10.17
2018-09-20T03:14:51.197Z,9.60
2018-09-20T03:17:20.285Z,9.57
2018-09-20T03:19:49.485Z,10.03
2018-09-20T03:22:18.591Z,9.43
2018-09-20T03:24:47.775Z,9.30
2018-09-20T03:27:31.648Z,10.37
2018-09-20T03:30:00.696Z,8.73
2018-09-20T03:32:29.768Z,9.40
2018-09-20T03:34:58.788Z,8.37
2018-09-20T03:37:27.994Z,10.70
2018-09-20T03:39:57.051Z,9.67
2018-09-20T03:42:26.224Z,10.40
2018-09-20T03:44:55.943Z,10.60
2018-09-20T03:47:25.028Z,10.90
2018-09-20T03:49:54.357Z,10.60
2018-09-20T03:52:23.408Z,9.70
2018-09-20T03:54:53.029Z,10.70
2018-09-20T03:57:22.054Z,9.33
2018-09-20T03:59:51.103Z,11.03
2018-09-20T04:02:20.178Z,10.90
2018-09-20T04:04:49.323Z,10.83
2018-09-20T04:07:18.429Z,10.87
2018-09-20T04:09:47.601Z,10.53
2018-09-20T04:12:16.717Z,10.63
2018-09-20T04:14:45.838Z,10.67
2018-09-20T04:17:14.914Z,11.30
2018-09-20T04:19:44.580Z,11.50
2018-09-20T04:22:13.640Z,10.80
2018-09-20T04:24:42.702Z,9.60
2018-09-20T04:27:11.976Z,10.60
2018-09-20T04:29:41.809Z,10.93
2018-09-20T04:32:10.949Z,10.80
2018-09-20T04:34:39.960Z,10.27
2018-09-20T04:37:09.662Z,10.83
2018-09-20T04:39:38.757Z,10.07
2018-09-20T04:42:07.841Z,9.90
2018-09-20T04:45:09.668Z,11.50
2018-09-20T04:47:39.246Z,10.77
2018-09-20T04:50:08.761Z,11.10
2018-09-20T04:52:38.369Z,10.50
2018-09-20T04:55:08.295Z,11.17
2018-09-20T04:57:37.439Z,11.53
2018-09-20T05:00:06.598Z,11.10
2018-09-20T05:02:35.951Z,10.87
2018-09-20T05:05:05.481Z,10.93
2018-09-20T05:07:34.821Z,9.67
2018-09-20T05:10:03.940Z,11.60
2018-09-20T05:12:33.074Z,9.30
2018-09-20T05:15:02.822Z,11.27
2018-09-20T05:17:31.922Z,10.50
2018-09-20T05:20:01.034Z,12.20
2018-09-20T05:22:30.253Z,11.47
2018-09-20T05:24:59.358Z,11.07
2018-09-20T05:27:28.545Z,10.80
2018-09-20T05:29:57.646Z,10.83
2018-09-20T05:32:27.434Z,10.40
2018-09-20T05:34:56.547Z,10.93
2018-09-20T05:37:25.607Z,11.30
2018-09-20T05:39:55.109Z,9.97
2018-09-20T05:42:25.001Z,10.70
2018-09-20T05:44:54.095Z,9.50
2018-09-20T05:47:23.264Z,9.83
2018-09-20T05:49:52.000Z,10.87
2018-09-20T05:52:20.953Z,9.57
2018-09-20T05:54:50.064Z,9.40
2018-09-20T05:57:19.165Z,9.17
2018-09-20T05:59:48.260Z,7.90
2018-09-20T06:02:17.404Z,8.10
2018-09-20T06:04:47.280Z,8.40
2018-09-20T06:07:16.538Z,12.73
2018-09-20T06:09:45.818Z,8.70
2018-09-20T06:12:14.933Z,7.43
2018-09-20T06:14:44.145Z,7.90
2018-09-20T06:17:13.319Z,8.57
2018-09-20T06:19:43.336Z,8.67
2018-09-20T06:22:12.483Z,7.93
2018-09-20T06:24:42.263Z,7.67
2018-09-20T06:27:11.665Z,7.53
2018-09-20T06:29:40.800Z,7.43
2018-09-20T06:32:10.807Z,7.70
2018-09-20T06:34:39.925Z,7.20
2018-09-20T06:37:09.064Z,7.43
2018-09-20T06:39:38.169Z,8.13
2018-09-20T06:42:07.252Z,8.40
2018-09-20T06:44:37.368Z,8.43
2018-09-20T06:47:06.444Z,10.37
2018-09-20T06:56:23.231Z,8.17
2018-09-20T06:58:52.362Z,7.80
2018-09-20T07:01:21.387Z,8.30
2018-09-20T07:03:51.213Z,7.00
2018-09-20T07:06:20.512Z,7.57
2018-09-20T07:08:49.656Z,8.43
2018-09-20T07:11:18.773Z,8.70
2018-09-20T07:13:48.053Z,8.63
2018-09-20T07:16:17.059Z,8.50
2018-09-20T07:18:46.188Z,8.10
2018-09-20T07:21:15.436Z,9.20
2018-09-20T07:23:44.502Z,9.57
2018-09-20T07:26:13.679Z,9.03
2018-09-20T07:28:42.776Z,9.50
2018-09-20T07:31:11.884Z,9.77
2018-09-20T07:33:41.065Z,8.73
2018-09-20T07:36:10.194Z,9.00
2018-09-20T07:38:39.520Z,10.47
2018-09-20T07:41:08.609Z,10.37
2018-09-20T07:43:38.558Z,9.90
2018-09-20T07:46:07.813Z,9.33
2018-09-20T07:48:37.055Z,9.47
2018-09-20T07:51:06.244Z,10.00
2018-09-20T07:53:35.452Z,10.00
2018-09-20T07:56:04.708Z,9.70
2018-09-20T07:58:33.836Z,10.73
2018-09-20T08:01:03.305Z,10.50
2018-09-20T08:03:32.411Z,9.80
2018-09-20T08:06:01.509Z,11.13
2018-09-20T08:08:30.601Z,11.10
2018-09-20T08:10:59.780Z,9.80
2018-09-20T08:13:29.056Z,8.93
2018-09-20T08:15:58.204Z,9.10
2018-09-20T08:18:27.293Z,9.43
2018-09-20T08:20:56.372Z,9.10
2018-09-20T08:23:25.643Z,9.80
2018-09-20T08:25:55.207Z,8.57
2018-09-20T08:28:24.398Z,10.00
2018-09-20T08:30:53.588Z,8.87
2018-09-20T08:33:22.834Z,9.30
2018-09-20T08:35:51.929Z,8.03
2018-09-20T08:38:21.006Z,8.20
2018-09-20T08:40:50.163Z,9.27
2018-09-20T08:43:19.417Z,7.90
2018-09-20T08:45:48.494Z,8.43
2018-09-20T08:48:17.530Z,7.47
2018-09-20T08:50:46.653Z,8.10
2018-09-20T08:53:15.773Z,7.80
2018-09-20T08:55:44.926Z,6.90
2018-09-20T08:58:14.110Z,7.10
2018-09-20T09:00:43.180Z,7.10
2018-09-20T09:03:12.220Z,7.03
2018-09-20T09:05:41.273Z,6.93
2018-09-20T09:08:10.479Z,7.60
2018-09-20T09:10:39.736Z,7.80
2018-09-20T09:13:09.446Z,7.30
2018-09-20T09:15:39.221Z,7.30
2018-09-20T09:18:08.254Z,7.83
2018-09-20T09:20:37.364Z,8.10
2018-09-20T09:23:06.535Z,7.50
2018-09-20T09:25:35.651Z,6.83
2018-09-20T09:28:04.998Z,6.10
2018-09-20T09:30:34.089Z,6.67
2018-09-20T09:33:03.301Z,8.13
2018-09-20T09:35:32.611Z,6.93
2018-09-20T09:38:01.861Z,6.40
2018-09-20T09:40:31.401Z,6.63
2018-09-20T09:43:00.641Z,6.33
2018-09-20T09:45:29.836Z,6.50
2018-09-20T09:47:58.869Z,5.87
2018-09-20T09:50:28.676Z,6.97
2018-09-20T09:52:58.512Z,5.90
2018-09-20T09:55:28.302Z,5.80
2018-09-20T09:57:57.399Z,5.83
2018-09-20T10:00:33.237Z,6.30
2018-09-20T10:03:02.314Z,6.33
2018-09-20T10:05:32.141Z,5.10
2018-09-20T10:08:01.318Z,5.23
2018-09-20T10:10:31.174Z,5.33
2018-09-20T10:13:00.426Z,4.70
2018-09-20T10:15:29.521Z,5.30
2018-09-20T10:17:58.611Z,5.63
2018-09-20T10:20:27.766Z,5.27
2018-09-20T10:22:57.042Z,4.97
2018-09-20T10:25:26.240Z,5.00
2018-09-20T10:27:56.360Z,4.93
2018-09-20T10:30:26.154Z,5.70
2018-09-20T10:32:55.220Z,5.00
2018-09-20T10:35:25.020Z,4.90
2018-09-20T10:37:54.755Z,4.43
2018-09-20T10:40:24.101Z,4.83
2018-09-20T10:42:53.187Z,4.50
2018-09-20T10:45:23.162Z,4.37
2018-09-20T10:47:52.452Z,4.50
2018-09-20T10:50:21.533Z,4.30
2018-09-20T10:52:50.573Z,4.50
2018-09-20T10:55:19.745Z,4.70
2018-09-20T10:57:49.591Z,4.80
2018-09-20T11:00:18.824Z,4.13
2018-09-20T11:02:48.725Z,4.30
2018-09-20T11:05:18.119Z,4.00
2018-09-20T11:07:47.777Z,4.13
2018-09-20T11:10:16.845Z,4.60
2018-09-20T11:12:45.913Z,3.97
2018-09-20T11:15:15.154Z,4.50
2018-09-20T11:17:44.364Z,4.23
2018-09-20T11:20:13.440Z,5.23
2018-09-20T11:22:42.517Z,4.20
2018-09-20T11:25:12.128Z,5.10
2018-09-20T11:27:41.248Z,4.43
2018-09-20T11:30:10.449Z,4.37
2018-09-20T11:32:40.825Z,3.50
2018-09-20T11:35:09.961Z,3.83
2018-09-20T11:37:39.168Z,4.10
2018-09-20T11:40:08.317Z,3.63
2018-09-20T11:42:37.943Z,3.67
2018-09-20T11:45:07.069Z,3.70
2018-09-20T11:47:36.149Z,4.20
2018-09-20T11:50:06.704Z,3.47
2018-09-20T11:52:35.957Z,3.60
2018-09-20T11:55:05.073Z,3.03
2018-09-20T11:57:34.305Z,3.10
2018-09-20T12:00:04.145Z,3.83
2018-09-20T12:02:33.297Z,3.70
2018-09-20T12:05:02.383Z,3.30
2018-09-20T12:07:31.481Z,3.87
2018-09-20T12:10:00.609Z,4.23
2018-09-20T12:12:30.365Z,4.10
2018-09-20T12:14:59.408Z,3.93
2018-09-20T12:17:28.565Z,3.90
2018-09-20T12:19:57.603Z,4.03
2018-09-20T12:22:27.250Z,3.37
2018-09-20T12:24:56.290Z,4.30
2018-09-20T12:27:25.648Z,3.40
2018-09-20T12:29:55.439Z,3.63
2018-09-20T12:32:25.292Z,4.17
2018-09-20T12:34:54.420Z,4.03
2018-09-20T12:37:29.470Z,4.47
2018-09-20T12:39:58.486Z,4.07
2018-09-20T12:42:27.748Z,4.50
2018-09-20T12:44:57.724Z,3.60
2018-09-20T12:47:26.861Z,3.70
2018-09-20T12:49:56.345Z,4.30
2018-09-20T12:52:25.512Z,4.27
2018-09-20T12:54:55.362Z,4.23
2018-09-20T12:57:25.053Z,3.97
2018-09-20T12:59:54.354Z,4.00
2018-09-20T13:02:23.534Z,3.90
2018-09-20T13:04:52.673Z,4.40
2018-09-20T13:07:21.757Z,4.30
2018-09-20T13:09:50.841Z,4.20
2018-09-20T13:12:20.032Z,3.67
2018-09-20T13:14:49.103Z,3.80
2018-09-20T13:17:18.282Z,3.80
2018-09-20T13:19:47.461Z,4.53
2018-09-20T13:22:16.529Z,3.87
2018-09-20T13:24:46.379Z,4.50
2018-09-20T13:27:16.064Z,4.30
2018-09-20T13:29:45.231Z,4.60
2018-09-20T13:34:33.783Z,4.13
2018-09-20T13:37:03.502Z,3.60
2018-09-20T13:39:32.656Z,3.90
2018-09-20T13:42:01.766Z,4.63
2018-09-20T13:44:31.645Z,4.60
2018-09-20T13:47:00.968Z,4.47
2018-09-20T13:49:30.844Z,3.93
2018-09-20T13:51:59.990Z,4.17
2018-09-20T13:54:29.902Z,3.97
2018-09-20T13:56:59.066Z,3.60
2018-09-20T13:59:29.039Z,3.60
2018-09-20T14:01:58.134Z,3.57
2018-09-20T14:04:27.207Z,3.93
2018-09-20T14:06:56.305Z,4.17
2018-09-20T14:09:26.079Z,4.00
2018-09-20T14:11:55.098Z,3.87
2018-09-20T14:14:24.233Z,4.43
2018-09-20T14:16:53.273Z,4.50
2018-09-20T14:19:22.367Z,4.23
2018-09-20T14:21:51.395Z,4.40
2018-09-20T14:24:20.457Z,4.67
2018-09-20T14:26:49.495Z,4.03
2018-09-20T14:29:18.592Z,4.37
2018-09-20T14:31:47.712Z,4.03
2018-09-20T14:34:16.804Z,3.83
2018-09-20T14:36:45.877Z,3.90
2018-09-20T14:39:15.648Z,3.80
2018-09-20T14:41:44.704Z,4.27
2018-09-20T14:44:13.804Z,4.37
2018-09-20T14:46:43.457Z,3.80
2018-09-20T14:49:13.172Z,4.13
2018-09-20T14:51:42.283Z,4.20
2018-09-20T14:54:11.348Z,4.17
2018-09-20T14:56:40.437Z,4.57
2018-09-20T14:59:09.500Z,4.10
2018-09-20T15:01:38.555Z,4.90
2018-09-20T15:04:07.829Z,4.00
2018-09-20T15:06:36.859Z,3.77
2018-09-20T15:09:09.109Z,4.30
2018-09-20T15:11:38.189Z,4.30
2018-09-20T15:14:07.343Z,4.03
2018-09-20T15:16:37.110Z,3.20
2018-09-20T15:19:06.368Z,4.27
2018-09-20T15:21:35.381Z,4.33
2018-09-20T15:24:04.478Z,3.77
2018-09-20T15:26:33.702Z,3.93
2018-09-20T15:29:02.831Z,4.00
2018-09-20T15:31:32.065Z,3.53
2018-09-20T15:34:01.418Z,4.23
2018-09-20T15:36:30.521Z,4.00
2018-09-20T15:38:59.592Z,4.80
2018-09-20T15:41:28.717Z,4.20
2018-09-20T15:43:57.836Z,4.10
2018-09-20T15:46:27.083Z,4.10
2018-09-20T15:48:56.167Z,4.63
2018-09-20T15:51:25.863Z,4.03
2018-09-20T15:53:54.947Z,4.07
2018-09-20T15:56:24.081Z,4.37
2018-09-20T15:58:53.156Z,4.33
2018-09-20T16:01:22.230Z,4.37
2018-09-20T16:03:51.319Z,3.97
2018-09-20T16:06:20.456Z,4.53
2018-09-20T16:08:49.552Z,4.50
2018-09-20T16:11:18.636Z,3.83
2018-09-20T16:13:48.432Z,4.30
2018-09-20T16:16:17.477Z,4.10
2018-09-20T16:18:46.619Z,4.20
2018-09-20T16:21:16.576Z,3.93
2018-09-20T16:23:45.660Z,4.27
2018-09-20T16:26:14.843Z,4.40
2018-09-20T16:31:04.241Z,4.60
2018-09-20T16:34:43.169Z,4.40
2018-09-20T16:37:23.263Z,4.23
2018-09-20T16:39:54.051Z,4.63
2018-09-20T16:42:24.382Z,4.30
2018-09-20T16:44:53.500Z,4.90
2018-09-20T16:47:22.648Z,5.37
2018-09-20T16:49:51.770Z,5.67
2018-09-20T16:52:20.836Z,5.70
2018-09-20T16:54:49.950Z,5.90
2018-09-20T16:57:19.012Z,6.17
2018-09-20T16:59:48.221Z,6.00
2018-09-20T17:02:17.282Z,5.93
2018-09-20T17:04:46.342Z,5.77
2018-09-20T17:07:15.601Z,5.23
2018-09-20T17:09:44.584Z,5.37
2018-09-20T17:12:13.792Z,6.00
2018-09-20T17:14:42.939Z,5.40
2018-09-20T17:17:12.041Z,4.63
2018-09-20T17:19:41.715Z,4.70
2018-09-20T17:22:10.778Z,5.83
2018-09-20T17:24:39.861Z,5.07
2018-09-20T17:27:08.971Z,4.77
2018-09-20T17:29:38.187Z,5.53
2018-09-20T17:32:07.882Z,4.70
2018-09-20T17:34:37.163Z,5.20
2018-09-20T17:37:07.160Z,5.40
2018-09-20T17:39:37.394Z,5.10
2018-09-20T17:42:07.526Z,7.23
2018-09-20T17:44:36.585Z,6.27
2018-09-20T17:47:05.982Z,5.40
2018-09-20T17:49:35.106Z,4.83
2018-09-20T17:52:04.632Z,5.70
2018-09-20T17:54:34.188Z,4.97
2018-09-20T17:57:03.413Z,5.23
2018-09-20T17:59:32.517Z,6.50
2018-09-20T18:02:01.613Z,5.87
2018-09-20T18:04:30.686Z,5.00
2018-09-20T18:06:59.969Z,6.23
2018-09-20T18:09:29.143Z,5.60
2018-09-20T18:11:58.804Z,5.70
2018-09-20T18:14:28.137Z,6.27
2018-09-20T18:16:57.168Z,6.20
2018-09-20T18:19:26.327Z,6.10
2018-09-20T18:21:55.409Z,5.30
2018-09-20T18:24:24.434Z,5.73
2018-09-20T18:26:53.604Z,5.27
2018-09-20T18:29:23.123Z,6.00
2018-09-20T18:31:52.714Z,6.50
2018-09-20T18:34:21.924Z,6.80
2018-09-20T18:36:51.084Z,7.20
2018-09-20T18:39:20.720Z,6.60
2018-09-20T18:41:49.837Z,6.57
2018-09-20T18:44:18.944Z,6.10
2018-09-20T18:46:48.025Z,7.23
2018-09-20T18:49:17.218Z,6.07
2018-09-20T18:51:46.365Z,5.60
2018-09-20T18:54:16.214Z,5.90
2018-09-20T18:56:45.390Z,6.37
2018-09-20T18:59:14.444Z,5.97
2018-09-20T19:01:43.580Z,6.33
2018-09-20T19:04:12.774Z,6.50
2018-09-20T19:06:41.951Z,6.37
2018-09-20T19:09:11.032Z,6.20
2018-09-20T19:11:40.217Z,6.80
2018-09-20T19:14:09.708Z,6.60
2018-09-20T19:16:38.934Z,6.07
2018-09-20T19:19:08.120Z,5.50
2018-09-20T19:21:37.373Z,5.90
2018-09-20T19:24:06.516Z,6.17
2018-09-20T19:26:35.721Z,5.70
2018-09-20T19:29:04.897Z,6.53
2018-09-20T19:31:34.048Z,5.93
2018-09-20T19:34:02.814Z,6.27
2018-09-20T19:36:31.833Z,5.70
2018-09-20T19:39:01.287Z,6.20
2018-09-20T19:41:30.527Z,6.70
2018-09-20T19:43:59.649Z,7.07
2018-09-20T19:46:28.810Z,7.13
2018-09-20T19:48:58.860Z,6.77
2018-09-20T19:51:28.185Z,6.67
2018-09-20T19:53:57.965Z,7.97
2018-09-20T19:56:27.115Z,6.43
2018-09-20T19:58:56.433Z,6.00
2018-09-20T20:01:25.516Z,5.80
2018-09-20T20:03:54.579Z,7.30
2018-09-20T20:06:24.369Z,6.00
2018-09-20T20:08:53.636Z,7.70
2018-09-20T20:11:22.868Z,7.00
2018-09-20T20:13:52.897Z,6.07
2018-09-20T20:16:21.976Z,6.70
2018-09-20T20:18:51.052Z,6.50
2018-09-20T20:21:20.094Z,7.87
2018-09-20T20:23:49.181Z,6.90
2018-09-20T20:26:18.343Z,6.77
2018-09-20T20:28:47.402Z,5.83
2018-09-20T20:31:16.476Z,7.40
2018-09-20T20:33:46.259Z,8.27
2018-09-20T20:36:15.892Z,7.87
2018-09-20T20:38:44.953Z,8.37
2018-09-20T20:41:14.113Z,9.67
2018-09-20T20:43:43.123Z,8.10
2018-09-20T20:46:12.185Z,8.97
2018-09-20T20:48:41.279Z,7.87
2018-09-20T20:51:10.449Z,9.90
2018-09-20T20:53:39.547Z,10.53
2018-09-20T20:56:09.129Z,10.93
2018-09-20T20:58:38.315Z,10.07
2018-09-20T21:01:08.580Z,10.47
2018-09-20T21:03:37.905Z,9.30
2018-09-20T21:06:07.215Z,8.77
2018-09-20T21:08:37.040Z,8.20
2018-09-20T21:11:05.836Z,8.10
2018-09-20T21:13:34.814Z,8.47
2018-09-20T21:16:03.902Z,8.33
2018-09-20T21:18:33.050Z,8.77
2018-09-20T21:21:02.304Z,9.83
2018-09-20T21:23:31.382Z,9.47
2018-09-20T21:26:00.453Z,9.13
2018-09-20T21:28:29.616Z,8.50
2018-09-20T21:30:58.932Z,9.10
2018-09-20T21:33:28.797Z,8.60
2018-09-20T21:35:58.525Z,10.80
2018-09-20T21:38:27.613Z,9.37
2018-09-20T21:40:56.793Z,10.10
2018-09-20T21:43:26.016Z,9.33
2018-09-20T21:45:55.138Z,9.60
2018-09-20T21:48:24.899Z,8.80
2018-09-20T21:50:54.087Z,9.40
2018-09-20T21:53:23.604Z,10.10
2018-09-20T21:55:53.442Z,9.40
2018-09-20T21:58:22.597Z,10.27
2018-09-20T22:00:55.894Z,10.10
2018-09-20T22:03:25.054Z,8.60
2018-09-20T22:05:54.972Z,10.30
2018-09-20T22:08:24.174Z,10.07
2018-09-20T22:10:53.051Z,10.00
2018-09-20T22:13:22.197Z,11.50
2018-09-20T22:15:51.541Z,11.37
2018-09-20T22:18:20.584Z,11.33
2018-09-20T22:20:49.748Z,12.60
2018-09-20T22:23:18.896Z,12.03
2018-09-20T22:25:48.098Z,11.00
2018-09-20T22:28:17.353Z,11.13
2018-09-20T22:30:47.065Z,11.10
2018-09-20T22:33:16.178Z,11.30
2018-09-20T22:35:45.273Z,11.60
2018-09-20T22:38:15.189Z,11.97
2018-09-20T22:40:44.390Z,13.07
2018-09-20T22:43:14.127Z,13.13
2018-09-20T22:45:43.507Z,12.60
2018-09-20T22:48:12.693Z,12.00
2018-09-20T22:50:41.872Z,11.40
2018-09-20T22:53:11.116Z,11.00
2018-09-20T22:55:40.205Z,11.57
2018-09-20T22:58:09.259Z,9.70
2018-09-20T23:00:38.430Z,12.00
2018-09-20T23:03:08.003Z,10.57
2018-09-20T23:05:37.252Z,10.47
2018-09-20T23:08:06.821Z,10.37
2018-09-20T23:10:36.036Z,9.77
2018-09-20T23:13:05.560Z,8.80
2018-09-20T23:15:34.669Z,9.53
2018-09-20T23:18:03.916Z,10.00
2018-09-20T23:20:33.129Z,10.40
2018-09-20T23:23:02.210Z,9.77
2018-09-20T23:25:31.471Z,8.80
2018-09-20T23:28:00.558Z,8.60
2018-09-20T23:30:29.768Z,9.37
2018-09-20T23:32:58.945Z,9.27
2018-09-20T23:35:28.789Z,9.90
2018-09-20T23:37:58.792Z,8.80
2018-09-20T23:40:27.948Z,8.87
2018-09-20T23:42:57.077Z,9.47
2018-09-20T23:45:27.008Z,8.93
2018-09-20T23:47:56.129Z,9.43
2018-09-20T23:50:25.256Z,9.00
2018-09-20T23:52:54.337Z,9.80
2018-09-20T23:55:23.462Z,9.37
2018-09-20T23:57:52.539Z,10.60
